Time;durP1;ratioP1;P1;durP2;ratioP2;P2;SDS_P1;SDS_P2;PMS_P1;PMS_P2;Temp;Humidity;BMP_temperature;BMP_pressure;BME280_temperature;BME280_humidity;BME280_pressure;Samples;Min_cycle;Max_cycle;Signal;HPM_P1;HPM_P2
2021/03/05 00:01:23;;;;;;;7.00;4.75;;;8.10;99.90;;;;;;4939940;29;20090;-89
2021/03/05 00:03:49;;;;;;;9.23;5.22;;;8.10;99.90;;;;;;4957455;29;20027;-89
2021/03/05 00:06:15;;;;;;;7.43;4.45;;;8.10;99.90;;;;;;4942079;29;20082;-89
2021/03/05 00:08:41;;;;;;;7.03;4.40;;;8.10;99.90;;;;;;4941807;29;20031;-90
2021/03/05 00:11:06;;;;;;;8.80;4.60;;;8.10;99.90;;;;;;4942246;29;20023;-90
2021/03/05 00:13:32;;;;;;;9.60;5.38;;;8.10;99.90;;;;;;4940975;29;20478;-90
2021/03/05 00:15:58;;;;;;;7.63;5.55;;;8.20;99.90;;;;;;4940531;29;20038;-91
2021/03/05 00:18:24;;;;;;;8.20;5.80;;;8.10;99.90;;;;;;4957874;29;20032;-90
2021/03/05 00:20:52;;;;;;;8.20;4.88;;;8.00;99.90;;;;;;4940478;29;20075;-91
2021/03/05 00:23:18;;;;;;;9.23;5.80;;;8.00;99.90;;;;;;4940889;29;20047;-91
2021/03/05 00:25:44;;;;;;;10.35;6.90;;;8.10;99.90;;;;;;4940823;29;20364;-90
2021/03/05 00:28:09;;;;;;;11.13;6.72;;;8.00;99.90;;;;;;4941010;29;20102;-91
2021/03/05 00:30:36;;;;;;;9.00;6.72;;;8.00;99.90;;;;;;4940472;29;20364;-90
2021/03/05 00:33:03;;;;;;;10.77;6.15;;;8.00;99.90;;;;;;4957552;28;20050;-90
2021/03/05 00:35:29;;;;;;;8.57;6.13;;;8.00;99.90;;;;;;4940323;29;20028;-92
2021/03/05 00:37:55;;;;;;;9.82;7.07;;;7.90;99.90;;;;;;4940535;29;20047;-90
2021/03/05 00:40:23;;;;;;;11.70;10.25;;;7.80;99.90;;;;;;4940075;29;20483;-89
2021/03/05 00:42:49;;;;;;;11.30;8.98;;;7.60;99.90;;;;;;4958117;29;20491;-90
2021/03/05 00:45:18;;;;;;;10.27;7.63;;;7.50;99.90;;;;;;4940221;29;20114;-89
2021/03/05 00:47:44;;;;;;;12.98;9.70;;;7.30;99.90;;;;;;4940007;29;20077;-89
2021/03/05 00:50:12;;;;;;;12.30;8.93;;;7.20;99.90;;;;;;4939502;29;20095;-89
2021/03/05 00:52:38;;;;;;;12.77;10.27;;;7.20;99.90;;;;;;4939299;29;20392;-90
2021/03/05 00:55:06;;;;;;;17.00;11.30;;;7.10;99.90;;;;;;4956196;29;20030;-90
2021/03/05 00:57:32;;;;;;;12.98;10.23;;;7.10;99.90;;;;;;4938959;29;20036;-89
2021/03/05 00:59:58;;;;;;;11.75;9.35;;;7.00;99.90;;;;;;4956303;29;20027;-90
2021/03/05 01:02:24;;;;;;;15.77;11.48;;;7.00;99.90;;;;;;4939371;29;20020;-90
2021/03/05 01:04:49;;;;;;;14.07;10.60;;;7.00;99.90;;;;;;4939234;29;20118;-89
2021/03/05 01:07:15;;;;;;;15.93;11.55;;;6.80;99.90;;;;;;4938600;29;20031;-89
2021/03/05 01:09:41;;;;;;;14.35;11.63;;;6.80;99.90;;;;;;4941819;29;20114;-88
2021/03/05 01:12:08;;;;;;;13.23;11.07;;;6.50;99.90;;;;;;4942283;29;20035;-88
2021/03/05 01:14:33;;;;;;;14.48;12.13;;;6.60;99.90;;;;;;4942223;29;20031;-88
2021/03/05 01:16:59;;;;;;;14.23;11.45;;;6.70;99.90;;;;;;4942018;29;20031;-88
2021/03/05 01:19:26;;;;;;;15.50;11.15;;;6.70;99.90;;;;;;4942129;29;20030;-89
2021/03/05 01:21:52;;;;;;;14.70;10.45;;;6.70;99.90;;;;;;4941819;29;20026;-89
2021/03/05 01:24:18;;;;;;;12.65;9.93;;;6.60;99.90;;;;;;4941687;29;20109;-89
2021/03/05 01:26:44;;;;;;;15.02;10.52;;;6.50;99.90;;;;;;4942064;29;20039;-89
2021/03/05 01:29:10;;;;;;;13.20;10.13;;;6.40;99.90;;;;;;4941909;29;20023;-89
2021/03/05 01:31:36;;;;;;;14.82;11.38;;;6.30;99.90;;;;;;4941827;29;20031;-89
2021/03/05 01:34:04;;;;;;;13.95;10.27;;;6.30;99.90;;;;;;4958944;29;20436;-89
2021/03/05 01:36:29;;;;;;;18.17;13.98;;;6.30;99.90;;;;;;4941460;29;20048;-89
2021/03/05 01:38:55;;;;;;;16.52;11.82;;;6.30;99.90;;;;;;4941585;29;20090;-90
2021/03/05 01:41:21;;;;;;;16.52;12.38;;;6.20;99.90;;;;;;4942160;29;20434;-90
2021/03/05 01:43:47;;;;;;;16.08;12.00;;;6.40;99.90;;;;;;4942187;29;20019;-90
2021/03/05 01:46:13;;;;;;;17.38;12.82;;;6.40;99.90;;;;;;4942164;29;20026;-90
2021/03/05 01:48:40;;;;;;;15.50;10.57;;;6.50;99.90;;;;;;4941746;29;20479;-89
2021/03/05 01:51:06;;;;;;;13.80;10.32;;;6.30;99.90;;;;;;4942187;29;20023;-91
2021/03/05 01:53:32;;;;;;;16.08;11.45;;;6.50;99.90;;;;;;4942069;29;20391;-89
2021/03/05 01:55:58;;;;;;;12.52;9.57;;;6.50;99.90;;;;;;4941553;29;20019;-90
2021/03/05 01:58:24;;;;;;;14.88;10.95;;;6.40;99.90;;;;;;4941973;29;20118;-89
2021/03/05 02:00:58;;;;;;;14.85;11.20;;;6.40;99.90;;;;;;4942249;29;20062;-89
2021/03/05 02:03:23;;;;;;;19.25;13.20;;;6.40;99.90;;;;;;4941991;29;20019;-90
2021/03/05 02:05:49;;;;;;;20.85;13.73;;;6.20;99.90;;;;;;4942401;29;20038;-90
2021/03/05 02:08:15;;;;;;;23.65;14.63;;;6.10;99.90;;;;;;4959266;29;20440;-90
2021/03/05 02:10:41;;;;;;;19.23;12.68;;;6.20;99.90;;;;;;4942058;29;20066;-90
2021/03/05 02:13:08;;;;;;;24.42;15.88;;;6.10;99.90;;;;;;4941610;29;20027;-90
2021/03/05 02:15:37;;;;;;;22.85;14.30;;;6.30;99.90;;;;;;4941968;29;20037;-90
2021/03/05 02:18:22;;;;;;;29.13;17.92;;;6.30;99.90;;;;;;4959242;29;20023;-90
2021/03/05 02:21:09;;;;;;;18.85;13.20;;;6.10;99.90;;;;;;4942392;29;20027;-91
2021/03/05 02:24:05;;;;;;;22.77;14.50;;;6.10;99.90;;;;;;4942399;29;20384;-90
2021/03/05 02:26:56;;;;;;;23.95;15.57;;;6.20;99.90;;;;;;4942687;29;20031;-90
2021/03/05 02:29:50;;;;;;;26.02;17.38;;;6.00;99.90;;;;;;4942701;29;20054;-90
2021/03/05 02:32:24;;;;;;;;;;;5.90;99.90;;;;;;4942963;29;20408;-91
2021/03/05 02:34:52;;;;;;;25.20;16.08;;;6.00;99.90;;;;;;4943104;29;19906;-91
2021/03/05 02:37:20;;;;;;;24.02;14.98;;;5.90;99.90;;;;;;4942632;29;20130;-90
2021/03/05 02:40:03;;;;;;;23.08;15.32;;;5.90;99.90;;;;;;4943748;29;20483;-90
2021/03/05 02:42:47;;;;;;;22.07;15.10;;;6.10;99.90;;;;;;4943613;29;20030;-90
2021/03/05 02:45:26;;;;;;;21.13;14.15;;;6.20;99.90;;;;;;4943235;29;20027;-90
2021/03/05 02:48:00;;;;;;;22.73;15.32;;;6.20;99.90;;;;;;4958800;29;20031;-89
2021/03/05 02:50:27;;;;;;;21.88;14.52;;;6.20;99.90;;;;;;4940556;29;20079;-88
2021/03/05 02:52:56;;;;;;;23.05;15.48;;;6.10;99.90;;;;;;4940227;29;20031;-87
2021/03/05 02:55:23;;;;;;;25.15;16.52;;;5.90;99.90;;;;;;4939891;29;20125;-86
2021/03/05 02:57:53;;;;;;;25.48;16.27;;;5.90;99.90;;;;;;4939587;29;20095;-87
2021/03/05 03:00:20;;;;;;;24.23;15.13;;;5.90;99.90;;;;;;4939775;29;20042;-87
2021/03/05 03:02:48;;;;;;;25.35;15.60;;;5.80;99.90;;;;;;4939950;29;20027;-87
2021/03/05 03:05:14;;;;;;;23.20;14.80;;;5.70;99.90;;;;;;4939995;29;20033;-87
2021/03/05 03:07:41;;;;;;;22.63;15.65;;;5.80;99.90;;;;;;4939299;29;20487;-88
2021/03/05 03:10:10;;;;;;;23.30;15.27;;;5.90;99.90;;;;;;4939042;29;20034;-88
2021/03/05 03:12:38;;;;;;;23.80;15.15;;;5.70;99.90;;;;;;4938890;29;20059;-87
2021/03/05 03:15:07;;;;;;;24.85;15.02;;;5.90;99.90;;;;;;4939493;29;20502;-88
2021/03/05 03:17:33;;;;;;;22.33;14.63;;;5.90;99.90;;;;;;4938533;29;20038;-87
2021/03/05 03:20:00;;;;;;;24.25;15.13;;;6.10;99.90;;;;;;4938760;29;20023;-87
2021/03/05 03:22:26;;;;;;;23.13;14.93;;;5.90;99.90;;;;;;4938821;29;20031;-87
2021/03/05 03:24:51;;;;;;;19.05;13.23;;;5.80;99.90;;;;;;4955951;29;20086;-88
2021/03/05 03:27:17;;;;;;;21.05;14.13;;;5.90;99.90;;;;;;4956298;29;20542;-88
2021/03/05 03:29:43;;;;;;;20.27;13.95;;;5.80;99.90;;;;;;4938712;29;20035;-89
2021/03/05 03:32:10;;;;;;;26.02;15.82;;;5.70;99.90;;;;;;4938437;29;20027;-88
2021/03/05 03:34:40;;;;;;;24.25;16.15;;;5.80;99.90;;;;;;4938686;29;20029;-88
2021/03/05 03:37:09;;;;;;;21.15;14.57;;;5.70;99.90;;;;;;4955746;29;20054;-88
2021/03/05 03:39:35;;;;;;;19.65;13.45;;;5.90;99.90;;;;;;4938724;29;20030;-88
2021/03/05 03:42:02;;;;;;;17.52;12.43;;;6.10;99.90;;;;;;4938792;29;20030;-89
2021/03/05 03:44:28;;;;;;;23.20;14.43;;;5.90;99.90;;;;;;4938800;29;20483;-89
2021/03/05 03:46:55;;;;;;;19.60;13.00;;;5.70;99.90;;;;;;4955889;29;20155;-88
2021/03/05 03:49:26;;;;;;;20.63;14.55;;;5.80;99.90;;;;;;4955822;29;20439;-88
2021/03/05 03:52:09;;;;;;;20.13;14.02;;;5.60;99.90;;;;;;4938675;29;20031;-88
2021/03/05 03:54:37;;;;;;;19.50;13.25;;;5.50;99.90;;;;;;4938551;29;20034;-89
2021/03/05 03:57:06;;;;;;;18.33;13.43;;;5.60;99.90;;;;;;4938589;29;20034;-88
2021/03/05 03:59:33;;;;;;;16.85;12.88;;;5.60;99.90;;;;;;4955631;29;20037;-89
2021/03/05 04:02:01;;;;;;;21.38;13.93;;;5.60;99.90;;;;;;4938394;29;20031;-89
2021/03/05 04:04:31;;;;;;;19.20;12.80;;;5.60;99.90;;;;;;4938413;29;20041;-89
2021/03/05 04:06:59;;;;;;;15.85;12.10;;;5.70;99.90;;;;;;4938462;29;20039;-89
2021/03/05 04:09:26;;;;;;;18.33;12.95;;;5.70;99.90;;;;;;4938736;29;20091;-89
2021/03/05 04:11:54;;;;;;;19.23;11.88;;;5.60;99.90;;;;;;4938314;29;20059;-89
2021/03/05 04:14:22;;;;;;;17.17;12.30;;;5.70;99.90;;;;;;4938341;29;20027;-89
2021/03/05 04:16:48;;;;;;;14.27;10.88;;;5.70;99.90;;;;;;4938247;29;20431;-89
2021/03/05 04:19:14;;;;;;;14.80;10.98;;;5.70;99.90;;;;;;4955389;29;20102;-88
2021/03/05 04:21:40;;;;;;;14.48;10.40;;;5.80;99.90;;;;;;4955774;29;20066;-88
2021/03/05 04:24:06;;;;;;;14.75;10.13;;;6.10;99.90;;;;;;4938226;29;20034;-88
2021/03/05 04:26:31;;;;;;;14.45;10.02;;;6.00;99.90;;;;;;4955332;29;20027;-88
2021/03/05 04:28:57;;;;;;;13.43;10.15;;;6.00;99.90;;;;;;4955353;29;20019;-88
2021/03/05 04:31:23;;;;;;;14.63;10.30;;;5.90;99.90;;;;;;4938005;28;20082;-89
2021/03/05 04:33:49;;;;;;;13.70;10.63;;;5.90;99.90;;;;;;4938055;29;20122;-89
2021/03/05 04:36:14;;;;;;;12.65;10.02;;;5.70;99.90;;;;;;4937815;29;20070;-88
2021/03/05 04:38:40;;;;;;;13.40;10.73;;;5.70;99.90;;;;;;4938032;29;20484;-89
2021/03/05 04:41:06;;;;;;;13.45;10.40;;;5.80;99.90;;;;;;4938080;29;20038;-89
2021/03/05 04:43:31;;;;;;;13.50;10.20;;;5.80;99.90;;;;;;4939247;29;20507;-88
2021/03/05 04:45:57;;;;;;;12.18;10.13;;;6.10;99.90;;;;;;4941815;29;20544;-88
2021/03/05 04:48:23;;;;;;;13.13;10.20;;;6.30;99.90;;;;;;4941723;29;20027;-89
2021/03/05 04:50:48;;;;;;;13.18;10.57;;;6.10;99.90;;;;;;4941786;29;20058;-88
2021/03/05 04:53:14;;;;;;;12.73;10.27;;;6.20;99.90;;;;;;4941753;29;20027;-89
2021/03/05 04:55:40;;;;;;;14.68;10.52;;;6.30;99.90;;;;;;4959097;29;20023;-89
2021/03/05 04:58:06;;;;;;;17.73;12.63;;;6.20;99.90;;;;;;4958769;29;20059;-88
2021/03/05 05:00:32;;;;;;;13.20;10.07;;;5.70;99.90;;;;;;4941642;29;20027;-89
2021/03/05 05:02:58;;;;;;;14.52;10.95;;;5.70;99.90;;;;;;4941516;29;20364;-89
2021/03/05 05:05:24;;;;;;;13.80;11.05;;;5.80;99.90;;;;;;4941388;29;20534;-87
2021/03/05 05:07:49;;;;;;;12.65;10.30;;;5.50;99.90;;;;;;4958677;29;20495;-89
2021/03/05 05:10:16;;;;;;;14.15;10.80;;;5.70;99.90;;;;;;4941328;29;20496;-88
2021/03/05 05:12:41;;;;;;;12.68;10.32;;;5.50;99.90;;;;;;4958809;29;20023;-89
2021/03/05 05:15:08;;;;;;;15.07;11.52;;;5.50;99.90;;;;;;4959078;29;20054;-89
2021/03/05 05:17:33;;;;;;;14.98;11.38;;;5.90;99.90;;;;;;4941446;29;20031;-89
2021/03/05 05:19:59;;;;;;;12.52;10.20;;;6.00;99.90;;;;;;4958620;29;20379;-89
2021/03/05 05:22:25;;;;;;;14.35;10.57;;;5.90;99.90;;;;;;4958566;29;20027;-89
2021/03/05 05:24:51;;;;;;;15.98;12.63;;;6.00;99.90;;;;;;4941232;29;20598;-89
2021/03/05 05:27:17;;;;;;;16.33;12.43;;;5.90;99.90;;;;;;4941419;29;20027;-89
2021/03/05 05:29:42;;;;;;;18.23;12.82;;;5.80;99.90;;;;;;4941432;29;20023;-89
2021/03/05 05:32:08;;;;;;;14.40;11.07;;;5.80;99.90;;;;;;4941378;29;20027;-90
2021/03/05 05:34:34;;;;;;;17.00;12.98;;;5.90;99.90;;;;;;4958508;29;20031;-89
2021/03/05 05:36:59;;;;;;;15.43;11.95;;;5.80;99.90;;;;;;4941437;29;20051;-89
2021/03/05 05:39:25;;;;;;;13.85;11.13;;;5.80;99.90;;;;;;4941377;29;20031;-89
2021/03/05 05:41:54;;;;;;;16.27;12.02;;;5.90;99.90;;;;;;4941133;29;20030;-89
2021/03/05 05:44:20;;;;;;;17.92;12.73;;;5.70;99.90;;;;;;4941906;29;20487;-90
2021/03/05 05:46:46;;;;;;;17.30;13.27;;;5.60;99.90;;;;;;4942087;29;20032;-92
2021/03/05 05:49:13;;;;;;;16.05;12.00;;;5.60;99.90;;;;;;4941405;29;20031;-91
2021/03/05 05:51:39;;;;;;;16.15;12.55;;;5.40;99.90;;;;;;4941709;29;20034;-92
2021/03/05 05:54:10;;;;;;;15.48;11.15;;;5.50;99.90;;;;;;4958808;28;20024;-91
2021/03/05 05:56:43;;;;;;;17.58;12.52;;;5.60;99.90;;;;;;4958630;29;20115;-92
2021/03/05 05:59:09;;;;;;;15.90;12.27;;;5.60;99.90;;;;;;4941602;29;20027;-91
2021/03/05 06:01:35;;;;;;;18.27;13.40;;;5.60;99.90;;;;;;4926152;29;20023;-91
2021/03/05 06:04:02;;;;;;;17.17;13.10;;;5.70;99.90;;;;;;4941996;29;20027;-92
2021/03/05 06:06:30;;;;;;;17.77;13.40;;;5.70;99.90;;;;;;4942512;29;20057;-92
2021/03/05 06:08:57;;;;;;;19.92;14.82;;;5.70;99.90;;;;;;4942143;29;20019;-93
2021/03/05 06:11:30;;;;;;;17.73;13.43;;;5.30;99.90;;;;;;4942687;29;20054;-92
2021/03/05 06:13:58;;;;;;;19.83;14.43;;;5.40;99.90;;;;;;4942743;29;20031;-92
2021/03/05 06:16:24;;;;;;;19.20;13.73;;;5.40;99.90;;;;;;4942238;29;20023;-93
2021/03/05 06:18:50;;;;;;;17.90;13.77;;;5.40;99.90;;;;;;4942454;29;20029;-93
2021/03/05 06:21:38;;;;;;;21.38;14.65;;;5.60;99.90;;;;;;4941553;29;20026;-92
2021/03/05 06:24:07;;;;;;;20.52;14.20;;;5.70;99.90;;;;;;4941932;29;20038;-92
2021/03/05 06:26:53;;;;;;;18.63;13.95;;;5.50;99.90;;;;;;4941661;29;20031;-93
2021/03/05 06:29:27;;;;;;;18.83;13.57;;;5.70;99.90;;;;;;4941159;29;20035;-92
2021/03/05 06:31:58;;;;;;;17.73;13.05;;;5.50;99.90;;;;;;4941830;29;20039;-93
2021/03/05 06:34:25;;;;;;;20.50;14.60;;;5.60;99.90;;;;;;4942033;29;20486;-92
2021/03/05 06:37:05;;;;;;;18.45;13.85;;;5.30;99.90;;;;;;4940750;29;20043;-92
2021/03/05 06:39:37;;;;;;;19.60;15.00;;;5.20;99.90;;;;;;4941803;29;20090;-92
2021/03/05 06:42:09;;;;;;;19.23;14.20;;;5.30;99.90;;;;;;4941424;29;20484;-91
2021/03/05 06:44:43;;;;;;;18.65;12.27;;;5.20;99.90;;;;;;4940848;29;20054;-92
2021/03/05 06:47:19;;;;;;;19.25;13.70;;;5.30;99.90;;;;;;4940781;29;20391;-94
2021/03/05 06:49:46;;;;;;;20.40;14.90;;;5.40;99.90;;;;;;4940673;29;20023;-93
2021/03/05 06:52:18;;;;;;;22.02;15.27;;;5.50;99.90;;;;;;4940765;29;20086;-93
2021/03/05 06:54:45;;;;;;;16.88;12.98;;;5.40;99.90;;;;;;4941541;29;20114;-94
2021/03/05 06:57:12;;;;;;;20.35;15.18;;;5.50;99.90;;;;;;4940543;29;20100;-92
2021/03/05 06:59:40;;;;;;;21.15;14.57;;;5.50;99.90;;;;;;4940368;29;20027;-92
2021/03/05 07:02:15;;;;;;;21.60;14.80;;;5.50;99.90;;;;;;4940419;29;20468;-93
2021/03/05 07:04:52;;;;;;;21.55;14.57;;;5.50;99.90;;;;;;4940974;29;20027;-93
2021/03/05 07:07:19;;;;;;;19.85;14.50;;;5.40;99.90;;;;;;4940599;29;20035;-93
2021/03/05 07:09:53;;;;;;;15.77;12.57;;;5.40;99.90;;;;;;4957575;29;20027;-93
2021/03/05 07:12:28;;;;;;;18.73;14.32;;;5.60;99.90;;;;;;4940306;29;20027;-93
2021/03/05 07:15:01;;;;;;;19.55;14.85;;;5.60;99.90;;;;;;4957271;29;20055;-93
2021/03/05 07:17:29;;;;;;;19.92;15.38;;;5.60;99.90;;;;;;4939734;29;20394;-94
2021/03/05 07:19:55;;;;;;;17.33;13.98;;;5.50;99.90;;;;;;4939945;29;20475;-93
2021/03/05 07:22:25;;;;;;;16.85;12.57;;;5.70;99.90;;;;;;4940110;29;20027;-93
2021/03/05 07:24:56;;;;;;;20.45;13.80;;;5.70;99.90;;;;;;4940944;29;20034;-92
2021/03/05 07:27:28;;;;;;;19.65;14.77;;;5.80;99.90;;;;;;4939827;29;20035;-93
2021/03/05 07:29:58;;;;;;;22.58;16.50;;;5.80;99.90;;;;;;4939964;29;20027;-94
2021/03/05 07:33:00;;;;;;;20.38;15.00;;;5.70;99.90;;;;;;4939874;29;20078;-93
2021/03/05 07:35:37;;;;;;;21.00;13.98;;;5.80;99.90;;;;;;4940202;29;20027;-93
2021/03/05 07:38:07;;;;;;;17.20;13.40;;;5.80;99.90;;;;;;4939626;29;20082;-93
2021/03/05 07:40:34;;;;;;;21.80;15.48;;;5.80;99.90;;;;;;4956644;29;20027;-92
2021/03/05 07:43:03;;;;;;;18.42;13.52;;;5.90;99.90;;;;;;4939689;29;20031;-93
2021/03/05 07:45:29;;;;;;;30.65;17.95;;;5.90;99.90;;;;;;4957032;29;20027;-93
2021/03/05 07:47:56;;;;;;;21.48;15.05;;;5.90;99.90;;;;;;4943577;29;20031;-93
2021/03/05 07:50:24;;;;;;;28.13;17.45;;;5.70;99.90;;;;;;4943350;29;20039;-92
2021/03/05 07:52:50;;;;;;;21.27;14.30;;;5.40;99.90;;;;;;4957180;29;20028;-94
2021/03/05 07:55:15;;;;;;;21.05;13.93;;;5.70;99.90;;;;;;4940531;29;20027;-92
2021/03/05 07:57:46;;;;;;;21.35;14.05;;;5.80;99.90;;;;;;4939415;29;20082;-93
2021/03/05 08:00:16;;;;;;;20.23;13.88;;;5.70;99.90;;;;;;4940791;29;20059;-93
2021/03/05 08:02:56;;;;;;;25.05;15.82;;;5.70;99.90;;;;;;4939570;29;20447;-94
2021/03/05 08:05:38;;;;;;;21.38;14.90;;;5.60;99.90;;;;;;4940042;29;20024;-93
2021/03/05 08:08:22;;;;;;;21.10;14.48;;;5.60;99.90;;;;;;4942271;29;20027;-96
2021/03/05 08:11:13;;;;;;;21.48;14.45;;;5.80;99.90;;;;;;4957792;29;20031;-96
2021/03/05 08:21:10;;;;;;;18.60;13.52;;;5.80;99.90;;;;;;4960602;29;20107;-96
2021/03/05 08:51:35;;;;;;;20.30;13.98;;;5.60;99.90;;;;;;4912460;29;20027;-95
2021/03/05 08:54:02;;;;;;;19.38;13.77;;;5.70;99.90;;;;;;4912277;29;20047;-95
2021/03/05 08:56:33;;;;;;;20.15;14.40;;;5.70;99.90;;;;;;4951576;29;20028;-96
2021/03/05 08:59:14;;;;;;;21.95;14.18;;;5.60;99.90;;;;;;4949893;29;20020;-95
2021/03/05 09:01:45;;;;;;;19.83;14.00;;;5.50;99.90;;;;;;4954821;29;20024;-94
2021/03/05 09:08:21;;;;;;;20.20;12.10;;;5.60;99.90;;;;;;4951877;29;20035;-95
2021/03/05 09:11:00;;;;;;;19.48;12.93;;;5.60;99.90;;;;;;4865659;29;20066;-88
2021/03/05 09:13:30;;;;;;;19.70;13.10;;;5.40;99.90;;;;;;4937003;29;20387;-88
2021/03/05 09:16:00;;;;;;;22.88;13.05;;;5.40;99.90;;;;;;4939184;29;20095;-88
2021/03/05 09:18:31;;;;;;;19.35;12.02;;;5.50;99.90;;;;;;4938747;29;20027;-91
2021/03/05 09:21:00;;;;;;;22.13;12.32;;;5.70;99.90;;;;;;4938533;29;20036;-88
2021/03/05 09:23:40;;;;;;;18.55;12.45;;;5.70;99.90;;;;;;4942141;29;20027;-88
2021/03/05 09:26:14;;;;;;;18.10;12.07;;;5.70;99.90;;;;;;4942103;29;20427;-88
2021/03/05 09:28:49;;;;;;;19.88;12.70;;;5.70;99.90;;;;;;4959354;28;20031;-88
2021/03/05 09:31:23;;;;;;;25.30;12.95;;;5.60;99.90;;;;;;4941816;28;20035;-88
2021/03/05 09:33:49;;;;;;;20.98;13.15;;;5.50;99.90;;;;;;4941681;29;20031;-90
2021/03/05 09:36:20;;;;;;;21.27;12.75;;;5.50;99.90;;;;;;4958888;29;20027;-88
2021/03/05 09:38:53;;;;;;;28.83;13.30;;;5.70;99.90;;;;;;4941722;29;20415;-87
2021/03/05 09:42:01;;;;;;;20.10;12.82;;;5.70;99.90;;;;;;4942384;29;20431;-88
2021/03/05 09:44:26;;;;;;;23.25;12.38;;;5.70;99.90;;;;;;4936639;29;20065;-87
2021/03/05 09:46:57;;;;;;;22.77;13.18;;;5.70;99.90;;;;;;4942257;29;20122;-88
2021/03/05 09:49:33;;;;;;;20.20;12.20;;;5.50;99.90;;;;;;4942475;29;20019;-88
2021/03/05 09:51:59;;;;;;;20.27;13.18;;;5.60;99.90;;;;;;4941978;29;20028;-87
2021/03/05 09:54:39;;;;;;;19.90;11.65;;;5.60;99.90;;;;;;4941586;29;20118;-88
2021/03/05 09:57:05;;;;;;;20.50;12.32;;;5.60;99.90;;;;;;4942670;29;20481;-92
2021/03/05 09:59:50;;;;;;;16.70;11.15;;;5.70;99.90;;;;;;4943024;29;20023;-87
2021/03/05 10:02:28;;;;;;;22.88;12.93;;;5.70;99.90;;;;;;4943043;29;20024;-89
2021/03/05 10:05:01;;;;;;;17.45;12.15;;;5.70;99.90;;;;;;4943816;29;20027;-89
2021/03/05 10:07:50;;;;;;;15.97;9.77;;;5.70;99.90;;;;;;4944272;29;20031;-91
2021/03/05 10:10:16;;;;;;;16.25;11.00;;;5.60;99.90;;;;;;4943774;29;20031;-88
2021/03/05 10:12:55;;;;;;;17.27;10.70;;;5.60;99.90;;;;;;4942149;29;20038;-88
2021/03/05 10:15:27;;;;;;;19.48;11.23;;;5.60;99.90;;;;;;4942097;29;20475;-91
2021/03/05 10:17:53;;;;;;;16.13;11.02;;;5.70;99.90;;;;;;4942438;29;20027;-89
2021/03/05 10:20:18;;;;;;;17.75;11.27;;;5.70;99.90;;;;;;4943600;29;20095;-88
2021/03/05 10:22:50;;;;;;;18.80;12.32;;;5.70;99.90;;;;;;4945694;29;20121;-87
2021/03/05 10:25:16;;;;;;;16.83;10.48;;;5.60;99.90;;;;;;4945964;29;20023;-88
2021/03/05 10:27:45;;;;;;;16.80;10.55;;;5.70;99.90;;;;;;4942782;29;20031;-88
2021/03/05 10:30:11;;;;;;;19.95;11.50;;;5.80;99.90;;;;;;4942050;29;20122;-91
2021/03/05 10:32:43;;;;;;;17.08;11.77;;;5.80;99.90;;;;;;4944169;29;20023;-92
2021/03/05 10:35:10;;;;;;;16.67;10.23;;;5.60;99.90;;;;;;4943306;29;20033;-92
2021/03/05 10:37:57;;;;;;;17.73;11.68;;;5.70;99.90;;;;;;4942375;29;20027;-90
2021/03/05 10:40:22;;;;;;;13.27;9.63;;;5.70;99.90;;;;;;4942801;28;20031;-88
2021/03/05 10:42:50;;;;;;;21.15;10.23;;;5.70;99.90;;;;;;4941203;29;20431;-92
2021/03/05 10:45:16;;;;;;;26.50;12.70;;;5.80;99.90;;;;;;4942715;29;20110;-91
2021/03/05 10:47:41;;;;;;;22.65;12.23;;;5.70;99.90;;;;;;4941725;29;20447;-88
2021/03/05 10:50:08;;;;;;;18.20;10.82;;;5.50;99.90;;;;;;4941168;29;20383;-90
2021/03/05 10:52:36;;;;;;;18.10;12.40;;;5.70;99.90;;;;;;4941555;29;20122;-90
2021/03/05 10:55:05;;;;;;;14.10;10.00;;;5.80;99.90;;;;;;4941895;29;20086;-91
2021/03/05 10:57:31;;;;;;;14.32;9.18;;;5.80;99.90;;;;;;4941048;29;20103;-90
2021/03/05 10:59:57;;;;;;;16.27;10.95;;;5.80;99.90;;;;;;4941504;29;20106;-89
2021/03/05 11:02:22;;;;;;;15.73;9.80;;;5.70;99.90;;;;;;4941134;29;20064;-89
2021/03/05 11:04:48;;;;;;;15.90;10.25;;;5.80;99.90;;;;;;4940538;29;20024;-90
2021/03/05 11:07:14;;;;;;;14.93;10.32;;;5.90;99.90;;;;;;4957702;29;20058;-88
2021/03/05 11:09:40;;;;;;;22.50;13.25;;;5.70;99.90;;;;;;4940655;29;20028;-91
2021/03/05 11:12:06;;;;;;;12.95;9.35;;;5.60;99.90;;;;;;4940151;29;20027;-90
2021/03/05 11:14:32;;;;;;;16.42;10.48;;;5.60;99.90;;;;;;4957427;29;20040;-90
2021/03/05 11:16:57;;;;;;;15.85;9.77;;;5.70;99.90;;;;;;4941019;29;20031;-91
2021/03/05 11:19:25;;;;;;;17.33;9.73;;;5.60;99.90;;;;;;4940528;29;20074;-90
2021/03/05 11:21:51;;;;;;;16.63;10.48;;;5.50;99.90;;;;;;4940497;29;20090;-89
2021/03/05 11:24:17;;;;;;;19.27;10.65;;;5.60;99.90;;;;;;4939969;29;20467;-86
2021/03/05 11:26:43;;;;;;;17.48;10.07;;;5.70;99.90;;;;;;4939783;29;20058;-89
2021/03/05 11:29:14;;;;;;;16.50;10.65;;;5.60;99.90;;;;;;4940048;29;20109;-90
2021/03/05 11:31:44;;;;;;;16.40;9.45;;;5.80;99.90;;;;;;4940455;29;20048;-90
2021/03/05 11:34:09;;;;;;;14.43;10.27;;;5.90;99.90;;;;;;4941448;29;20027;-93
2021/03/05 11:36:35;;;;;;;17.48;11.43;;;5.90;99.90;;;;;;4940401;29;20074;-89
2021/03/05 11:39:02;;;;;;;20.58;11.48;;;5.70;99.90;;;;;;4940117;29;20043;-89
2021/03/05 11:41:27;;;;;;;15.57;10.00;;;5.60;99.90;;;;;;4939972;29;20050;-89
2021/03/05 11:43:53;;;;;;;15.48;10.77;;;5.70;99.90;;;;;;4957287;29;20023;-91
2021/03/05 11:46:22;;;;;;;20.02;11.23;;;5.90;99.90;;;;;;4957526;29;20503;-92
2021/03/05 11:48:49;;;;;;;17.75;10.85;;;5.80;99.90;;;;;;4940337;29;20058;-90
2021/03/05 11:51:15;;;;;;;21.92;12.15;;;5.90;99.90;;;;;;4940363;29;20027;-90
2021/03/05 11:53:41;;;;;;;16.92;11.98;;;5.80;99.90;;;;;;4939950;29;20027;-91
2021/03/05 11:56:10;;;;;;;16.70;11.25;;;5.70;99.90;;;;;;4940688;29;20035;-89
2021/03/05 11:58:41;;;;;;;18.88;11.40;;;5.90;99.90;;;;;;4958727;29;20027;-89
2021/03/05 12:01:06;;;;;;;17.38;11.45;;;5.90;99.90;;;;;;4940557;29;20019;-89
2021/03/05 12:03:32;;;;;;;21.98;10.88;;;5.80;99.90;;;;;;4940218;29;20494;-91
2021/03/05 12:05:59;;;;;;;16.10;11.07;;;5.70;99.90;;;;;;4939912;29;20026;-90
2021/03/05 12:08:27;;;;;;;17.60;10.93;;;5.80;99.90;;;;;;4940716;29;20051;-90
2021/03/05 12:10:53;;;;;;;24.45;12.65;;;5.90;99.90;;;;;;4942276;29;20027;-91
2021/03/05 12:13:24;;;;;;;19.17;12.75;;;5.90;99.90;;;;;;4942184;29;20031;-91
2021/03/05 12:15:53;;;;;;;18.40;12.13;;;5.70;99.90;;;;;;4940832;29;20031;-91
2021/03/05 12:18:19;;;;;;;18.95;10.48;;;5.70;99.90;;;;;;4940793;29;20079;-90
2021/03/05 12:21:14;;;;;;;15.82;11.23;;;5.90;99.90;;;;;;4941434;29;20090;-90
2021/03/05 12:23:40;;;;;;;17.65;10.98;;;6.20;99.90;;;;;;4941998;29;20059;-91
2021/03/05 12:26:06;;;;;;;18.45;12.07;;;6.20;99.90;;;;;;4942036;29;20034;-90
2021/03/05 12:28:53;;;;;;;16.23;10.05;;;6.10;99.90;;;;;;4940196;29;20035;-89
2021/03/05 12:31:19;;;;;;;14.27;10.52;;;6.00;99.90;;;;;;4940407;28;20036;-90
2021/03/05 12:33:45;;;;;;;16.75;10.57;;;6.10;99.90;;;;;;4941388;29;20039;-88
2021/03/05 12:36:11;;;;;;;15.18;10.88;;;6.00;99.90;;;;;;4939577;29;20031;-91
2021/03/05 12:38:38;;;;;;;17.52;12.32;;;6.00;99.90;;;;;;4958519;29;20103;-90
2021/03/05 12:41:04;;;;;;;14.80;10.00;;;5.90;99.90;;;;;;4941747;29;20027;-91
2021/03/05 12:43:30;;;;;;;19.42;11.55;;;6.00;99.90;;;;;;4941086;29;20030;-91
2021/03/05 12:45:59;;;;;;;17.90;11.80;;;6.00;99.90;;;;;;4941523;29;20073;-91
2021/03/05 12:48:27;;;;;;;14.07;9.50;;;6.10;99.90;;;;;;4941566;29;20028;-91
2021/03/05 12:50:53;;;;;;;18.10;9.32;;;6.40;99.90;;;;;;4941588;29;20063;-91
2021/03/05 12:53:19;;;;;;;17.73;10.73;;;6.50;99.90;;;;;;4941734;29;20035;-91
2021/03/05 12:55:45;;;;;;;20.98;11.68;;;6.40;99.90;;;;;;4942210;29;20483;-91
2021/03/05 12:58:10;;;;;;;17.20;10.75;;;6.30;99.90;;;;;;4942623;29;20027;-91
2021/03/05 13:00:36;;;;;;;18.77;12.27;;;6.30;99.90;;;;;;4942209;29;20026;-89
2021/03/05 13:03:02;;;;;;;20.65;11.73;;;6.20;99.90;;;;;;4941058;29;20063;-91
2021/03/05 13:05:28;;;;;;;17.40;11.52;;;6.20;99.90;;;;;;4943771;29;20023;-89
2021/03/05 13:07:54;;;;;;;17.20;10.48;;;6.30;99.90;;;;;;4944367;29;20475;-90
2021/03/05 13:10:20;;;;;;;18.98;10.35;;;6.50;99.90;;;;;;4944576;29;20119;-87
2021/03/05 13:12:45;;;;;;;16.83;10.40;;;6.40;99.90;;;;;;4944621;29;20107;-88
2021/03/05 13:15:12;;;;;;;16.77;10.45;;;6.60;99.90;;;;;;4960988;29;20028;-91
2021/03/05 13:17:38;;;;;;;17.63;11.02;;;6.40;99.90;;;;;;4945295;29;20029;-90
2021/03/05 13:20:05;;;;;;;21.10;10.32;;;6.50;99.90;;;;;;4944170;29;20114;-91
2021/03/05 13:22:30;;;;;;;15.52;10.98;;;6.40;99.90;;;;;;4943449;29;20434;-90
2021/03/05 13:24:57;;;;;;;14.88;9.65;;;6.50;99.90;;;;;;4943918;29;20027;-89
2021/03/05 13:27:23;;;;;;;17.85;10.48;;;6.60;99.90;;;;;;4943790;29;20051;-90